createdAt,value
2022-12-18T00:02:38.814Z,62
2022-12-18T00:12:40.734Z,62
2022-12-18T00:22:43.259Z,62
2022-12-18T00:32:45.827Z,62
2022-12-18T00:42:48.143Z,61
2022-12-18T01:02:53.116Z,61
2022-12-18T01:12:55.642Z,61
2022-12-18T01:22:57.523Z,60
2022-12-18T01:32:59.524Z,60
2022-12-18T01:43:01.395Z,60
2022-12-18T01:53:03.529Z,60
2022-12-18T02:03:05.702Z,60
2022-12-18T02:13:07.865Z,60
2022-12-18T02:23:10.053Z,59
2022-12-18T02:33:12.556Z,59
2022-12-18T02:53:17.293Z,59
2022-12-18T03:13:22.076Z,59
2022-12-18T03:33:25.706Z,58
2022-12-18T03:43:27.876Z,58
2022-12-18T03:53:29.999Z,58
2022-12-18T04:13:34.505Z,58
2022-12-18T04:23:36.519Z,58
2022-12-18T04:43:41.730Z,57
2022-12-18T05:13:49.008Z,57
2022-12-18T05:23:51.222Z,57
2022-12-18T05:43:55.438Z,57
2022-12-18T05:53:57.373Z,57
2022-12-18T06:14:01.233Z,57
2022-12-18T06:34:06.437Z,56
2022-12-18T07:14:14.927Z,56
2022-12-18T07:34:19.034Z,56
2022-12-18T07:44:21.740Z,56
2022-12-18T07:54:23.592Z,56
2022-12-18T08:14:27.511Z,56
2022-12-18T08:24:29.924Z,56
2022-12-18T08:34:31.884Z,56
2022-12-18T08:44:33.682Z,56
2022-12-18T08:54:35.822Z,57
2022-12-18T09:14:40.186Z,57
2022-12-18T09:24:42.102Z,57
2022-12-18T09:34:44.248Z,57
2022-12-18T09:54:48.968Z,58
2022-12-18T10:04:50.714Z,58
2022-12-18T10:14:53.412Z,58
2022-12-18T10:35:00.364Z,58
2022-12-18T10:44:59.721Z,58
2022-12-18T10:55:01.953Z,59
2022-12-18T11:05:03.947Z,59
2022-12-18T11:25:31.222Z,59
2022-12-18T11:35:10.463Z,59
2022-12-18T11:45:12.187Z,60
2022-12-18T12:05:17.074Z,60
2022-12-18T12:15:19.149Z,60
2022-12-18T12:35:23.278Z,61
2022-12-18T12:55:27.905Z,61
2022-12-18T13:05:29.970Z,62
2022-12-18T13:15:32.353Z,62
2022-12-18T13:25:33.820Z,62
2022-12-18T13:35:35.725Z,62
2022-12-18T13:45:37.618Z,63
2022-12-18T13:55:39.832Z,63
2022-12-18T14:05:42.893Z,63
2022-12-18T14:15:44.360Z,63
2022-12-18T14:25:46.307Z,64
2022-12-18T14:35:48.556Z,65
2022-12-18T14:45:51.163Z,65
2022-12-18T14:55:52.866Z,65
2022-12-18T15:05:54.574Z,65
2022-12-18T15:15:56.748Z,65
2022-12-18T15:25:58.612Z,65
2022-12-18T15:36:00.941Z,65
2022-12-18T15:46:03.677Z,65
2022-12-18T15:56:05.531Z,65
2022-12-18T16:16:10.050Z,65
2022-12-18T16:56:18.859Z,66
2022-12-18T17:06:20.794Z,66
2022-12-18T17:16:23.119Z,66
2022-12-18T17:26:25.276Z,67
2022-12-18T17:46:29.129Z,67
2022-12-18T17:56:31.156Z,67
2022-12-18T18:06:33.394Z,67
2022-12-18T18:16:35.586Z,67
2022-12-18T18:26:37.316Z,67
2022-12-18T18:36:39.176Z,68
2022-12-18T18:46:41.355Z,67
2022-12-18T19:06:46.026Z,68
2022-12-18T19:26:50.784Z,68
2022-12-18T19:36:58.088Z,67
2022-12-18T19:46:55.396Z,67
2022-12-18T19:56:57.224Z,67
2022-12-18T20:06:58.966Z,67
2022-12-18T20:17:01.240Z,67
2022-12-18T20:27:03.188Z,67
2022-12-18T20:37:05.197Z,67
2022-12-18T20:47:08.496Z,67
2022-12-18T21:07:11.959Z,67
2022-12-18T21:17:14.532Z,67
2022-12-18T21:27:17.810Z,67
2022-12-18T21:37:19.012Z,67
2022-12-18T21:47:22.493Z,67
2022-12-18T21:57:23.427Z,67
2022-12-18T22:07:25.925Z,67
2022-12-18T22:17:28.429Z,68
2022-12-18T22:27:37.328Z,68
2022-12-18T22:37:40.003Z,68
2022-12-18T22:47:41.942Z,69
2022-12-18T22:57:46.175Z,69
2022-12-18T23:07:46.241Z,69
2022-12-18T23:17:48.210Z,70
2022-12-18T23:27:50.783Z,70
2022-12-18T23:37:59.576Z,71
2022-12-18T23:47:54.659Z,71
2022-12-18T23:57:56.707Z,71
